Time;durP1;ratioP1;P1;durP2;ratioP2;P2;SDS_P1;SDS_P2;PMS_P1;PMS_P2;Temp;Humidity;BMP_temperature;BMP_pressure;BME280_temperature;BME280_humidity;BME280_pressure;Samples;Min_cycle;Max_cycle;Signal;HPM_P1;HPM_P2
2022/01/25 00:25:46;;;;;;;37.72;34.95;;;;;;;;;;10529899;28;20028;-68
2022/01/25 00:36:03;;;;;;;38.40;35.53;;;;;;;;;;10532238;28;20035;-72
2022/01/25 00:41:03;;;;;;;32.22;30.00;;;;;;;;;;10496979;28;20057;-71
2022/01/25 00:46:10;;;;;;;31.85;29.90;;;;;;;;;;10531709;28;20057;-69
2022/01/25 00:56:22;;;;;;;43.63;40.35;;;;;;;;;;10531277;28;20046;-70
2022/01/25 01:01:22;;;;;;;29.95;28.02;;;;;;;;;;10531251;28;20398;-69
2022/01/25 01:06:22;;;;;;;29.17;26.83;;;;;;;;;;10512677;28;20499;-70
2022/01/25 01:11:31;;;;;;;33.57;30.83;;;;;;;;;;10512093;28;20058;-73
2022/01/25 01:47:50;;;;;;;56.05;52.00;;;;;;;;;;10529068;28;20030;-71
2022/01/25 01:52:50;;;;;;;50.60;47.17;;;;;;;;;;10510721;28;20036;-72
2022/01/25 01:57:51;;;;;;;46.60;42.58;;;;;;;;;;10510610;28;20067;-72
2022/01/25 02:02:51;;;;;;;55.80;52.25;;;;;;;;;;10528595;28;20043;-73
2022/01/25 02:07:51;;;;;;;37.53;35.17;;;;;;;;;;10509566;28;20119;-69
2022/01/25 02:12:52;;;;;;;41.17;38.47;;;;;;;;;;10509611;28;20056;-70
2022/01/25 02:22:24;;;;;;;44.42;41.30;;;;;;;;;;10509726;28;20262;-71
2022/01/25 02:23:13;;;;;;;41.30;38.28;;;;;;;;;;10527240;28;20043;-69
2022/01/25 02:28:14;;;;;;;40.65;37.80;;;;;;;;;;10509068;28;20032;-70
2022/01/25 02:33:14;;;;;;;48.17;45.60;;;;;;;;;;10509782;28;20032;-68
2022/01/25 02:38:19;;;;;;;30.75;28.67;;;;;;;;;;10508865;28;20036;-70
2022/01/25 02:43:20;;;;;;;23.52;21.65;;;;;;;;;;10508705;28;20043;-70
2022/01/25 02:48:30;;;;;;;26.00;23.58;;;;;;;;;;10508088;28;20071;-69
2022/01/25 02:53:30;;;;;;;39.40;36.22;;;;;;;;;;10507456;28;20039;-70
2022/01/25 02:58:30;;;;;;;35.77;32.50;;;;;;;;;;10508091;28;20032;-73
2022/01/25 03:03:31;;;;;;;38.53;31.75;;;;;;;;;;10490965;28;20274;-70
2022/01/25 03:08:32;;;;;;;46.92;36.70;;;;;;;;;;10491524;28;20032;-70
2022/01/25 03:13:43;;;;;;;55.17;50.42;;;;;;;;;;10507396;28;20532;-70
2022/01/25 03:18:46;;;;;;;80.68;66.47;;;;;;;;;;10525367;28;20123;-71
2022/01/25 03:23:48;;;;;;;73.90;65.93;;;;;;;;;;10529091;28;20488;-69
2022/01/25 03:28:49;;;;;;;77.65;67.07;;;;;;;;;;10525877;28;20032;-75
2022/01/25 03:33:49;;;;;;;60.42;55.38;;;;;;;;;;10506839;28;20036;-70
2022/01/25 03:38:49;;;;;;;69.73;63.30;;;;;;;;;;10506918;28;20092;-74
2022/01/25 03:43:54;;;;;;;82.80;77.03;;;;;;;;;;10507187;28;20293;-74
2022/01/25 03:54:13;;;;;;;65.55;59.08;;;;;;;;;;10524868;28;20032;-70
2022/01/25 03:59:14;;;;;;;63.33;57.38;;;;;;;;;;10510460;28;20040;-70
2022/01/25 04:04:18;;;;;;;46.22;42.63;;;;;;;;;;10532929;28;20504;-70
2022/01/25 04:09:18;;;;;;;77.75;71.72;;;;;;;;;;10534050;28;20024;-70
2022/01/25 04:14:19;;;;;;;76.25;71.00;;;;;;;;;;10514393;28;20048;-69
2022/01/25 04:19:33;;;;;;;58.33;53.50;;;;;;;;;;10514622;28;20032;-69
2022/01/25 04:24:57;;;;;;;37.88;34.20;;;;;;;;;;10532223;28;20296;-73
2022/01/25 04:29:57;;;;;;;55.88;50.45;;;;;;;;;;10514180;28;20031;-71
2022/01/25 04:35:10;;;;;;;48.45;44.13;;;;;;;;;;10513485;28;20040;-70
2022/01/25 04:51:13;;;;;;;56.38;51.67;;;;;;;;;;10517348;28;20417;-75
2022/01/25 04:56:22;;;;;;;42.73;39.80;;;;;;;;;;10543247;28;20036;-75
2022/01/25 05:01:23;;;;;;;47.08;43.28;;;;;;;;;;10497115;28;20266;-73
2022/01/25 05:06:24;;;;;;;31.00;27.73;;;;;;;;;;10487282;28;20456;-73
2022/01/25 05:11:31;;;;;;;42.53;39.90;;;;;;;;;;10442167;28;20573;-74
2022/01/25 05:16:48;;;;;;;39.78;37.22;;;;;;;;;;10494332;28;20038;-73
2022/01/25 05:22:19;;;;;;;45.75;42.85;;;;;;;;;;10474532;28;20052;-72
2022/01/25 05:27:21;;;;;;;48.15;37.00;;;;;;;;;;10477108;28;20037;-73
2022/01/25 05:32:22;;;;;;;52.15;48.75;;;;;;;;;;10470692;28;20032;-74
2022/01/25 05:37:23;;;;;;;33.72;31.13;;;;;;;;;;10486545;28;20578;-76
2022/01/25 05:47:32;;;;;;;43.88;36.78;;;;;;;;;;10520180;28;20441;-72
2022/01/25 05:52:32;;;;;;;41.85;37.33;;;;;;;;;;10467722;28;20828;-73
2022/01/25 05:57:32;;;;;;;36.72;32.95;;;;;;;;;;10451671;28;20033;-74
2022/01/25 06:02:34;;;;;;;54.43;49.27;;;;;;;;;;10468139;28;20032;-73
2022/01/25 06:07:35;;;;;;;31.42;28.75;;;;;;;;;;10468499;28;20020;-75
2022/01/25 06:12:35;;;;;;;44.70;41.63;;;;;;;;;;10484111;28;20079;-73
2022/01/25 06:17:35;;;;;;;48.67;45.50;;;;;;;;;;10484518;28;20255;-73
2022/01/25 06:22:36;;;;;;;54.78;50.90;;;;;;;;;;10483242;28;20035;-73
2022/01/25 06:27:43;;;;;;;57.85;53.75;;;;;;;;;;10484350;28;20024;-72
2022/01/25 06:32:46;;;;;;;44.80;41.58;;;;;;;;;;10485552;28;20461;-74
2022/01/25 06:37:47;;;;;;;44.60;40.58;;;;;;;;;;10482609;28;20036;-71
2022/01/25 06:42:47;;;;;;;41.92;38.55;;;;;;;;;;10482773;28;20037;-72
2022/01/25 06:47:48;;;;;;;38.80;35.37;;;;;;;;;;10484044;28;20498;-72
2022/01/25 06:52:48;;;;;;;67.90;61.85;;;;;;;;;;10466047;28;20031;-74
2022/01/25 06:57:48;;;;;;;40.38;37.92;;;;;;;;;;10465802;28;20039;-73
2022/01/25 07:02:49;;;;;;;38.27;34.90;;;;;;;;;;10465713;28;20410;-73
2022/01/25 07:07:50;;;;;;;37.90;35.20;;;;;;;;;;10465539;28;20020;-72
2022/01/25 07:12:50;;;;;;;50.95;47.03;;;;;;;;;;10482376;28;20071;-74
2022/01/25 07:17:50;;;;;;;43.70;40.05;;;;;;;;;;10482283;28;20027;-72
2022/01/25 07:22:52;;;;;;;37.40;33.67;;;;;;;;;;10464905;28;20051;-72
2022/01/25 07:27:52;;;;;;;40.63;36.55;;;;;;;;;;10465295;28;20044;-73
2022/01/25 07:32:52;;;;;;;36.38;32.60;;;;;;;;;;10480635;28;20055;-72
2022/01/25 07:37:53;;;;;;;33.50;30.42;;;;;;;;;;10481593;28;20033;-79
2022/01/25 07:42:53;;;;;;;32.92;29.45;;;;;;;;;;10464670;28;20028;-76
2022/01/25 07:47:53;;;;;;;25.90;23.27;;;;;;;;;;10482089;28;20085;-75
2022/01/25 07:52:54;;;;;;;20.42;18.38;;;;;;;;;;10481508;28;20271;-72
2022/01/25 07:57:55;;;;;;;28.58;24.17;;;;;;;;;;10482163;28;20486;-75
2022/01/25 08:02:55;;;;;;;31.67;23.92;;;;;;;;;;10482481;28;20033;-74
2022/01/25 08:07:56;;;;;;;31.23;15.75;;;;;;;;;;10482717;28;20021;-73
2022/01/25 08:12:56;;;;;;;24.98;17.20;;;;;;;;;;10447533;28;20056;-76
2022/01/25 08:17:56;;;;;;;24.50;14.40;;;;;;;;;;10480963;28;20024;-71
2022/01/25 08:22:57;;;;;;;30.90;15.57;;;;;;;;;;10464965;28;20091;-77
2022/01/25 08:27:57;;;;;;;31.70;15.35;;;;;;;;;;10481115;28;20033;-73
2022/01/25 08:32:57;;;;;;;22.63;12.57;;;;;;;;;;10506665;28;20073;-73
2022/01/25 08:37:57;;;;;;;29.57;13.43;;;;;;;;;;10505266;28;20058;-73
2022/01/25 08:42:58;;;;;;;30.93;14.13;;;;;;;;;;10505283;28;20032;-75
2022/01/25 08:47:58;;;;;;;37.65;15.85;;;;;;;;;;10530992;28;20976;-76
2022/01/25 08:52:58;;;;;;;31.83;15.10;;;;;;;;;;10512635;28;20028;-73
2022/01/25 08:57:59;;;;;;;27.92;15.07;;;;;;;;;;10512635;28;20027;-73
2022/01/25 09:03:02;;;;;;;23.05;16.65;;;;;;;;;;10512370;28;20066;-73
2022/01/25 09:08:04;;;;;;;26.90;14.15;;;;;;;;;;10530185;28;20563;-73
2022/01/25 09:13:04;;;;;;;20.30;11.45;;;;;;;;;;10511794;28;20437;-73
2022/01/25 09:18:04;;;;;;;23.47;14.07;;;;;;;;;;10511522;28;20043;-73
2022/01/25 09:23:05;;;;;;;31.48;11.82;;;;;;;;;;10529464;28;20036;-74
2022/01/25 09:28:05;;;;;;;21.80;10.90;;;;;;;;;;10511232;28;20028;-72
2022/01/25 09:33:05;;;;;;;27.37;13.33;;;;;;;;;;10510372;28;20020;-73
2022/01/25 09:38:06;;;;;;;24.83;12.73;;;;;;;;;;10529044;28;20303;-72
2022/01/25 09:43:07;;;;;;;24.75;10.73;;;;;;;;;;10510780;28;20024;-74
2022/01/25 09:48:08;;;;;;;17.90;9.10;;;;;;;;;;10528570;28;20024;-71
2022/01/25 09:53:09;;;;;;;25.10;11.75;;;;;;;;;;10510224;28;20039;-73
2022/01/25 09:58:12;;;;;;;19.00;10.02;;;;;;;;;;10527605;28;20103;-73
2022/01/25 10:03:21;;;;;;;20.83;11.32;;;;;;;;;;10510258;28;20032;-72
2022/01/25 10:08:26;;;;;;;19.08;10.68;;;;;;;;;;10510338;28;20035;-72
2022/01/25 10:13:28;;;;;;;30.55;10.98;;;;;;;;;;10530849;28;20090;-74
2022/01/25 10:18:41;;;;;;;37.83;12.48;;;;;;;;;;10509788;28;20417;-75
2022/01/25 10:23:57;;;;;;;26.55;12.45;;;;;;;;;;10508723;28;20028;-73
2022/01/25 10:28:58;;;;;;;30.42;11.10;;;;;;;;;;10509640;28;20436;-73
2022/01/25 10:33:58;;;;;;;27.88;11.77;;;;;;;;;;10508396;28;20081;-71
2022/01/25 10:38:59;;;;;;;27.60;10.93;;;;;;;;;;10508393;28;20036;-73
2022/01/25 10:43:59;;;;;;;30.48;10.68;;;;;;;;;;10508777;28;20114;-73
2022/01/25 10:49:00;;;;;;;43.17;12.37;;;;;;;;;;10491413;28;20043;-72
2022/01/25 10:54:03;;;;;;;29.17;12.70;;;;;;;;;;10514763;28;20122;-73
2022/01/25 10:59:06;;;;;;;31.92;13.27;;;;;;;;;;10466652;28;20028;-73
2022/01/25 11:04:07;;;;;;;47.53;13.45;;;;;;;;;;10482800;28;20032;-72
2022/01/25 11:09:10;;;;;;;26.20;11.40;;;;;;;;;;10483405;28;20028;-75
2022/01/25 11:19:30;;;;;;;26.17;12.02;;;;;;;;;;10485317;28;20417;-70
2022/01/25 11:24:32;;;;;;;29.90;13.20;;;;;;;;;;10465238;28;20032;-74
2022/01/25 11:29:34;;;;;;;24.13;11.82;;;;;;;;;;10481932;28;20048;-73
2022/01/25 11:34:35;;;;;;;30.73;11.77;;;;;;;;;;10465145;28;20469;-73
2022/01/25 11:39:38;;;;;;;27.77;12.68;;;;;;;;;;10465639;28;20051;-73
2022/01/25 11:44:46;;;;;;;42.80;14.77;;;;;;;;;;10464715;28;20085;-74
2022/01/25 11:49:49;;;;;;;22.40;11.70;;;;;;;;;;10464360;28;20029;-71
2022/01/25 11:54:51;;;;;;;27.88;13.18;;;;;;;;;;10464958;28;20549;-74
2022/01/25 11:59:53;;;;;;;33.50;13.52;;;;;;;;;;10481034;28;20024;-70
2022/01/25 12:05:02;;;;;;;32.38;14.32;;;;;;;;;;10464848;28;20248;-75
2022/01/25 12:10:13;;;;;;;36.78;15.65;;;;;;;;;;10481919;28;20142;-72
2022/01/25 12:15:17;;;;;;;32.35;15.57;;;;;;;;;;10463958;28;20445;-72
2022/01/25 12:20:21;;;;;;;35.88;15.98;;;;;;;;;;10486022;28;20036;-77
2022/01/25 12:25:34;;;;;;;32.40;16.70;;;;;;;;;;10473763;28;20062;-73
2022/01/25 12:30:42;;;;;;;34.58;16.17;;;;;;;;;;10474586;28;20024;-71
2022/01/25 12:35:42;;;;;;;33.30;16.17;;;;;;;;;;10488019;28;20387;-72
2022/01/25 12:40:49;;;;;;;25.08;14.15;;;;;;;;;;10489514;28;20025;-77
2022/01/25 12:46:10;;;;;;;33.08;16.63;;;;;;;;;;10470883;28;20029;-75
2022/01/25 12:51:11;;;;;;;25.88;14.70;;;;;;;;;;10469931;28;20059;-74
2022/01/25 12:56:16;;;;;;;33.75;17.70;;;;;;;;;;10487080;28;20120;-71
2022/01/25 13:01:18;;;;;;;31.75;16.23;;;;;;;;;;10496907;28;20125;-73
2022/01/25 13:06:19;;;;;;;30.67;15.25;;;;;;;;;;10512337;28;20055;-71
2022/01/25 13:11:28;;;;;;;32.33;17.48;;;;;;;;;;10508650;28;20297;-71
2022/01/25 13:16:34;;;;;;;39.42;15.95;;;;;;;;;;10470423;28;20091;-69
2022/01/25 13:21:55;;;;;;;28.02;13.90;;;;;;;;;;10474304;28;20892;-74
2022/01/25 13:26:58;;;;;;;31.25;13.40;;;;;;;;;;10510394;28;20043;-77
2022/01/25 13:32:09;;;;;;;30.17;15.98;;;;;;;;;;10484555;28;20101;-75
2022/01/25 13:37:20;;;;;;;26.90;15.48;;;;;;;;;;10485521;28;20028;-70
2022/01/25 13:42:26;;;;;;;31.75;16.63;;;;;;;;;;10457645;28;20086;-69
2022/01/25 13:47:26;;;;;;;25.30;15.65;;;;;;;;;;10429297;28;20127;-69
2022/01/25 13:52:28;;;;;;;30.98;13.82;;;;;;;;;;10510853;28;20421;-73
2022/01/25 13:57:28;;;;;;;25.15;14.20;;;;;;;;;;10510459;28;20410;-73
2022/01/25 14:02:29;;;;;;;29.30;17.88;;;;;;;;;;10528512;28;20153;-70
2022/01/25 14:07:35;;;;;;;31.40;17.75;;;;;;;;;;10491647;28;20423;-74
2022/01/25 14:23:22;;;;;;;31.02;18.85;;;;;;;;;;10484965;28;20032;-71
2022/01/25 14:28:25;;;;;;;27.98;17.13;;;;;;;;;;10451580;28;20477;-70
2022/01/25 14:33:32;;;;;;;22.17;16.55;;;;;;;;;;10482952;28;20029;-70
2022/01/25 14:38:32;;;;;;;41.03;18.58;;;;;;;;;;10466530;28;20043;-71
2022/01/25 14:43:37;;;;;;;29.55;20.35;;;;;;;;;;10465880;28;20418;-70
2022/01/25 14:48:39;;;;;;;40.97;18.05;;;;;;;;;;10465987;28;20067;-73
2022/01/25 14:53:43;;;;;;;42.58;31.80;;;;;;;;;;10466309;28;20039;-71
2022/01/25 15:03:51;;;;;;;34.88;28.75;;;;;;;;;;10483739;28;20063;-70
2022/01/25 15:08:53;;;;;;;33.13;22.47;;;;;;;;;;10465196;28;20124;-69
2022/01/25 15:13:58;;;;;;;31.52;25.25;;;;;;;;;;10465664;28;20114;-69
2022/01/25 15:18:59;;;;;;;32.08;21.88;;;;;;;;;;10483486;28;20789;-75
2022/01/25 15:23:59;;;;;;;29.65;23.77;;;;;;;;;;10483086;28;20102;-73
2022/01/25 15:29:01;;;;;;;30.65;27.67;;;;;;;;;;10464857;28;20421;-71
2022/01/25 15:34:01;;;;;;;24.65;22.08;;;;;;;;;;10481397;28;20028;-71
2022/01/25 15:39:02;;;;;;;32.80;21.98;;;;;;;;;;10447686;28;20090;-70
2022/01/25 15:44:03;;;;;;;32.10;23.52;;;;;;;;;;10480909;28;20094;-71
2022/01/25 15:49:04;;;;;;;34.80;24.02;;;;;;;;;;10480607;28;20033;-69
2022/01/25 15:54:05;;;;;;;32.38;22.27;;;;;;;;;;10466045;28;20051;-69
2022/01/25 15:59:05;;;;;;;36.03;23.77;;;;;;;;;;10473366;28;20082;-73
2022/01/25 16:04:05;;;;;;;24.30;18.77;;;;;;;;;;10472232;28;20473;-72
2022/01/25 16:09:07;;;;;;;32.08;23.63;;;;;;;;;;10490277;28;20440;-73
2022/01/25 16:14:07;;;;;;;38.55;30.60;;;;;;;;;;10472247;28;20060;-70
2022/01/25 16:19:08;;;;;;;29.83;23.27;;;;;;;;;;10472665;28;20620;-72
2022/01/25 16:24:10;;;;;;;38.20;25.98;;;;;;;;;;10489518;28;20452;-69
2022/01/25 16:29:11;;;;;;;30.85;26.88;;;;;;;;;;10488542;28;20143;-71
2022/01/25 16:34:12;;;;;;;34.55;22.55;;;;;;;;;;10471813;28;20032;-75
2022/01/25 16:39:14;;;;;;;32.92;24.02;;;;;;;;;;10489639;28;20032;-68
2022/01/25 16:44:14;;;;;;;36.20;20.45;;;;;;;;;;10487934;28;20037;-73
2022/01/25 16:49:15;;;;;;;30.70;24.13;;;;;;;;;;10470936;28;20027;-71
2022/01/25 16:54:15;;;;;;;41.80;27.45;;;;;;;;;;10470774;28;20098;-74
2022/01/25 16:59:18;;;;;;;18.60;16.92;;;;;;;;;;10487361;28;20083;-69
2022/01/25 17:04:18;;;;;;;35.60;21.73;;;;;;;;;;10488616;28;20113;-71
2022/01/25 17:09:18;;;;;;;26.67;20.65;;;;;;;;;;10453817;28;20032;-70
2022/01/25 17:14:19;;;;;;;30.55;26.92;;;;;;;;;;10487265;28;20053;-75
2022/01/25 17:19:19;;;;;;;39.17;28.20;;;;;;;;;;10486398;28;20082;-75
2022/01/25 17:24:19;;;;;;;40.15;36.00;;;;;;;;;;10486454;28;20043;-69
2022/01/25 17:29:21;;;;;;;31.40;28.10;;;;;;;;;;10487964;28;20040;-74
2022/01/25 17:34:21;;;;;;;34.88;25.13;;;;;;;;;;10470279;28;20139;-69
2022/01/25 17:39:21;;;;;;;25.57;22.83;;;;;;;;;;10469262;28;20063;-72
2022/01/25 17:44:21;;;;;;;24.83;18.57;;;;;;;;;;10452528;28;20279;-70
2022/01/25 17:49:22;;;;;;;29.90;18.70;;;;;;;;;;10439626;28;20374;-70
2022/01/25 17:54:22;;;;;;;33.95;24.92;;;;;;;;;;10443875;28;20029;-69
2022/01/25 17:59:23;;;;;;;33.90;23.73;;;;;;;;;;10465908;28;20142;-70
2022/01/25 18:04:23;;;;;;;37.15;24.25;;;;;;;;;;10528259;28;20293;-71
2022/01/25 18:09:23;;;;;;;41.05;22.80;;;;;;;;;;10509521;28;20544;-74
2022/01/25 18:14:23;;;;;;;39.25;30.35;;;;;;;;;;10446313;28;20065;-74
2022/01/25 18:19:24;;;;;;;39.10;26.90;;;;;;;;;;10443970;28;20029;-72
2022/01/25 18:24:33;;;;;;;37.05;29.15;;;;;;;;;;10442527;28;20032;-71
2022/01/25 18:29:34;;;;;;;41.67;37.42;;;;;;;;;;10427843;28;20100;-71
2022/01/25 18:34:34;;;;;;;29.30;26.48;;;;;;;;;;10442207;28;20498;-73
2022/01/25 18:39:34;;;;;;;34.00;30.25;;;;;;;;;;10442499;28;20590;-70
2022/01/25 18:44:35;;;;;;;35.80;25.15;;;;;;;;;;10443635;28;20032;-70
2022/01/25 18:49:36;;;;;;;29.30;26.30;;;;;;;;;;10443408;28;20112;-71
2022/01/25 18:54:37;;;;;;;36.47;29.10;;;;;;;;;;10445440;28;20522;-70
2022/01/25 18:59:37;;;;;;;22.23;16.40;;;;;;;;;;10411250;28;20044;-72
2022/01/25 19:04:39;;;;;;;21.65;18.90;;;;;;;;;;10445254;28;20033;-70
2022/01/25 19:09:39;;;;;;;21.42;17.50;;;;;;;;;;10456097;28;20111;-70
2022/01/25 19:14:41;;;;;;;24.00;16.75;;;;;;;;;;10482700;28;20052;-72
2022/01/25 19:19:41;;;;;;;27.63;19.92;;;;;;;;;;10482337;28;20555;-75
2022/01/25 19:24:42;;;;;;;27.60;19.97;;;;;;;;;;10465287;28;20033;-72
2022/01/25 19:29:42;;;;;;;23.42;18.77;;;;;;;;;;10481550;28;20051;-69
2022/01/25 19:34:43;;;;;;;20.87;15.43;;;;;;;;;;10482599;28;20032;-73
2022/01/25 19:39:47;;;;;;;24.58;22.00;;;;;;;;;;10478423;28;20032;-71
2022/01/25 19:44:47;;;;;;;27.73;22.77;;;;;;;;;;10505809;28;20058;-71
2022/01/25 19:49:48;;;;;;;32.22;27.58;;;;;;;;;;10506548;28;20028;-72
2022/01/25 19:54:50;;;;;;;22.90;20.45;;;;;;;;;;10524803;28;20032;-69
2022/01/25 19:59:50;;;;;;;28.60;23.75;;;;;;;;;;10496989;28;20051;-72
2022/01/25 20:04:51;;;;;;;21.93;15.83;;;;;;;;;;10433568;28;20407;-70
2022/01/25 20:09:54;;;;;;;23.50;15.38;;;;;;;;;;10438804;28;20820;-70
2022/01/25 20:14:56;;;;;;;23.20;16.17;;;;;;;;;;10439848;28;20053;-70
2022/01/25 20:19:58;;;;;;;22.92;18.08;;;;;;;;;;10473942;28;20028;-73
2022/01/25 20:25:26;;;;;;;21.55;18.33;;;;;;;;;;10523722;28;20115;-72
2022/01/25 20:30:36;;;;;;;28.07;15.90;;;;;;;;;;10505545;28;20074;-77
2022/01/25 20:35:36;;;;;;;21.73;16.27;;;;;;;;;;10505374;28;20061;-70
2022/01/25 20:40:36;;;;;;;21.90;19.27;;;;;;;;;;10508117;28;20123;-69
2022/01/25 20:45:37;;;;;;;28.00;20.67;;;;;;;;;;10512696;28;20717;-70
2022/01/25 20:50:37;;;;;;;28.90;22.58;;;;;;;;;;10497060;28;20017;-71
2022/01/25 20:55:37;;;;;;;25.75;16.92;;;;;;;;;;10512399;28;20055;-75
2022/01/25 21:00:46;;;;;;;29.88;21.13;;;;;;;;;;10512813;28;20028;-71
2022/01/25 21:11:08;;;;;;;30.02;20.25;;;;;;;;;;10527477;28;20048;-70
2022/01/25 21:16:08;;;;;;;27.15;14.90;;;;;;;;;;10511169;28;20115;-72
2022/01/25 21:21:10;;;;;;;16.25;12.48;;;;;;;;;;10530187;28;20424;-70
2022/01/25 21:26:11;;;;;;;20.33;14.55;;;;;;;;;;10510777;28;20090;-69
2022/01/25 21:31:13;;;;;;;17.65;13.95;;;;;;;;;;10465313;28;20031;-72
2022/01/25 21:36:13;;;;;;;21.58;14.48;;;;;;;;;;10457366;28;20482;-76
2022/01/25 21:41:14;;;;;;;25.15;15.23;;;;;;;;;;10485665;28;20035;-71
2022/01/25 21:46:15;;;;;;;15.85;14.07;;;;;;;;;;10483114;28;20119;-71
2022/01/25 21:51:15;;;;;;;31.30;16.33;;;;;;;;;;10464494;28;20149;-72
2022/01/25 21:56:16;;;;;;;14.85;12.75;;;;;;;;;;10500382;28;20093;-72
2022/01/25 22:01:16;;;;;;;22.75;11.82;;;;;;;;;;10500337;28;20024;-75
2022/01/25 22:06:29;;;;;;;21.95;13.93;;;;;;;;;;10499525;28;20121;-69
2022/01/25 22:11:32;;;;;;;24.92;13.07;;;;;;;;;;10467414;28;20051;-72
2022/01/25 22:16:32;;;;;;;17.48;15.63;;;;;;;;;;10484548;28;20075;-74
2022/01/25 22:21:33;;;;;;;23.17;14.50;;;;;;;;;;10484224;28;20410;-74
2022/01/25 22:26:34;;;;;;;26.75;14.35;;;;;;;;;;10482897;28;20032;-69
2022/01/25 22:31:34;;;;;;;18.13;12.55;;;;;;;;;;10484091;28;20230;-69
2022/01/25 22:36:34;;;;;;;19.83;17.73;;;;;;;;;;10500594;28;20115;-70
2022/01/25 22:41:35;;;;;;;25.55;19.33;;;;;;;;;;10483284;28;20536;-69
2022/01/25 22:51:54;;;;;;;20.92;17.70;;;;;;;;;;10484237;28;20771;-70
2022/01/25 22:56:54;;;;;;;24.30;21.55;;;;;;;;;;10484280;28;20032;-70
2022/01/25 23:07:15;;;;;;;26.35;21.75;;;;;;;;;;10484445;28;20037;-70
2022/01/25 23:17:38;;;;;;;27.58;18.65;;;;;;;;;;10494640;28;20024;-72
2022/01/25 23:22:39;;;;;;;33.85;24.17;;;;;;;;;;10482854;28;20417;-75
2022/01/25 23:27:39;;;;;;;32.60;29.25;;;;;;;;;;10487727;28;20039;-70
2022/01/25 23:37:57;;;;;;;23.63;20.40;;;;;;;;;;10525167;28;20115;-79
2022/01/25 23:43:01;;;;;;;32.53;24.70;;;;;;;;;;10525687;28;20088;-74
2022/01/25 23:48:04;;;;;;;29.05;23.88;;;;;;;;;;10506195;28;20039;-70
